PWSweather.com
Personal Weather Stations
Station Observations
WARREN
Narre Warren , MelbourneAU

Narre Warren MelbourneAU

Lat: -38.0314269, Lon: 145.3160851

Elevation: 24

Station Type: Digiteck

http://www.aussiedownunder.net/

High Low Average
Temperature 61.9°F16.6°C 42.6°F5.9°C 52.6°F11.4°C
Dew Point 49.2°F9.6°C 38.8°F3.8°C 43.9°F6.6°C
Winds 8.4 mph 13.5 kmh 0.3 mph 0.5 kmh 5.0 mph SW8.0 kmh SW
Wind Gusts 21.3 mph34.3 kmh 2.2 mph3.5 kmh 12.0 mph19.3 kmh
Humidity 93% 44% 73%
Pressure 29.84 in1010.5 mb 29.39 in995.3 mb -
Precipitation 0.13 in3.3 mm - -
Hour Temp Dew Point Humidity Winds Wind Gusts Pressure Precip Precip Rate Daily Precip Total
12:00 AM 54.9°F12.7°C 49.1°F9.5°C 81% 4.2 mph SW6.8 kmh SW 12.1 mph19.5 kmh 29.44 in997.0 mb 0.00 in0.0 mm 0.00 in0.0 mm 0.00 in0.0 mm
12:15 AM 55.2°F12.9°C 49.2°F9.6°C 80% 4.5 mph WNW7.2 kmh WNW 13.0 mph20.9 kmh 29.44 in997.0 mb 0.00 in0.0 mm 0.00 in0.0 mm 0.00 in0.0 mm
12:30 AM 55.0°F12.8°C 48.7°F9.3°C 79% 4.9 mph W7.9 kmh W 12.1 mph19.5 kmh 29.43 in996.6 mb 0.00 in0.0 mm 0.00 in0.0 mm 0.00 in0.0 mm
12:45 AM 54.9°F12.7°C 48.1°F8.9°C 78% 5.5 mph SW8.9 kmh SW 15.9 mph25.6 kmh 29.42 in996.3 mb 0.00 in0.0 mm 0.00 in0.0 mm 0.00 in0.0 mm
01:00 AM 54.9°F12.7°C 48.1°F8.9°C 78% 4.6 mph WSW7.4 kmh WSW 13.0 mph20.9 kmh 29.41 in995.9 mb 0.00 in0.0 mm 0.00 in0.0 mm 0.00 in0.0 mm
01:15 AM 55.0°F12.8°C 47.6°F8.7°C 76% 6.0 mph NW9.7 kmh NW 16.8 mph27.0 kmh 29.41 in995.9 mb 0.00 in0.0 mm 0.00 in0.0 mm 0.00 in0.0 mm
01:30 AM 55.0°F12.8°C 46.9°F8.3°C 74% 7.7 mph NW12.4 kmh NW 19.0 mph30.6 kmh 29.41 in995.9 mb 0.00 in0.0 mm 0.00 in0.0 mm 0.00 in0.0 mm
01:45 AM 54.5°F12.5°C 46.7°F8.2°C 75% 8.2 mph W13.2 kmh W 18.3 mph29.5 kmh 29.41 in995.9 mb 0.00 in0.0 mm 0.00 in0.0 mm 0.00 in0.0 mm
02:00 AM 54.0°F12.2°C 47.3°F8.5°C 78% 5.0 mph WSW8.0 kmh WSW 13.6 mph21.9 kmh 29.40 in995.6 mb 0.00 in0.0 mm 0.00 in0.0 mm 0.00 in0.0 mm
02:15 AM 53.6°F12.0°C 47.9°F8.8°C 81% 2.8 mph WSW4.5 kmh WSW 7.6 mph12.2 kmh 29.40 in995.6 mb 0.00 in0.0 mm 0.00 in0.0 mm 0.00 in0.0 mm
02:30 AM 53.1°F11.7°C 48.0°F8.9°C 83% 1.7 mph NW2.7 kmh NW 8.3 mph13.4 kmh 29.40 in995.6 mb 0.00 in0.0 mm 0.00 in0.0 mm 0.00 in0.0 mm
02:45 AM 53.4°F11.9°C 48.1°F8.9°C 82% 5.0 mph W8.0 kmh W 13.0 mph20.9 kmh 29.40 in995.6 mb 0.00 in0.0 mm 0.00 in0.0 mm 0.00 in0.0 mm
03:00 AM 53.6°F12.0°C 46.9°F8.3°C 78% 5.7 mph WSW9.2 kmh WSW 12.1 mph19.5 kmh 29.40 in995.6 mb 0.00 in0.0 mm 0.00 in0.0 mm 0.00 in0.0 mm
03:15 AM 52.7°F11.5°C 47.7°F8.7°C 83% 4.0 mph NW6.4 kmh NW 10.7 mph17.2 kmh 29.40 in995.6 mb 0.00 in0.0 mm 0.00 in0.0 mm 0.00 in0.0 mm
03:30 AM 52.2°F11.2°C 47.8°F8.8°C 85% 4.4 mph WSW7.1 kmh WSW 12.1 mph19.5 kmh 29.39 in995.3 mb 0.00 in0.0 mm 0.00 in0.0 mm 0.00 in0.0 mm
03:45 AM 52.2°F11.2°C 47.5°F8.6°C 84% 4.6 mph WSW7.4 kmh WSW 12.1 mph19.5 kmh 29.40 in995.6 mb 0.00 in0.0 mm 0.00 in0.0 mm 0.00 in0.0 mm
04:00 AM 52.9°F11.6°C 47.5°F8.6°C 82% 6.5 mph WSW10.5 kmh WSW 13.6 mph21.9 kmh 29.40 in995.6 mb 0.00 in0.0 mm 0.00 in0.0 mm 0.00 in0.0 mm
04:15 AM 53.1°F11.7°C 47.1°F8.4°C 80% 5.0 mph WNW8.0 kmh WNW 14.5 mph23.3 kmh 29.41 in995.9 mb 0.00 in0.0 mm 0.00 in0.0 mm 0.00 in0.0 mm
04:30 AM 53.2°F11.8°C 46.6°F8.1°C 78% 5.2 mph SW8.4 kmh SW 18.3 mph29.5 kmh 29.41 in995.9 mb 0.00 in0.0 mm 0.00 in0.0 mm 0.00 in0.0 mm
04:45 AM 53.2°F11.8°C 46.2°F7.9°C 77% 6.1 mph NW9.8 kmh NW 13.6 mph21.9 kmh 29.41 in995.9 mb 0.00 in0.0 mm 0.00 in0.0 mm 0.00 in0.0 mm
05:00 AM 53.1°F11.7°C 45.7°F7.6°C 76% 7.7 mph NW12.4 kmh NW 15.9 mph25.6 kmh 29.42 in996.3 mb 0.00 in0.0 mm 0.00 in0.0 mm 0.00 in0.0 mm
05:15 AM 52.9°F11.6°C 45.9°F7.7°C 77% 6.5 mph WSW10.5 kmh WSW 15.2 mph24.5 kmh 29.43 in996.6 mb 0.00 in0.0 mm 0.00 in0.0 mm 0.00 in0.0 mm
05:30 AM 53.1°F11.7°C 46.0°F7.8°C 77% 7.7 mph W12.4 kmh W 16.8 mph27.0 kmh 29.43 in996.6 mb 0.00 in0.0 mm 0.00 in0.0 mm 0.00 in0.0 mm
05:45 AM 52.3°F11.3°C 46.0°F7.8°C 79% 6.9 mph WSW11.1 kmh WSW 16.8 mph27.0 kmh 29.44 in997.0 mb 0.00 in0.0 mm 0.00 in0.0 mm 0.00 in0.0 mm
06:00 AM 51.4°F10.8°C 47.4°F8.6°C 86% 5.3 mph WSW8.5 kmh WSW 12.1 mph19.5 kmh 29.45 in997.3 mb 0.00 in0.0 mm 0.00 in0.0 mm 0.00 in0.0 mm
06:15 AM 51.3°F10.7°C 47.5°F8.6°C 87% 4.9 mph W7.9 kmh W 11.4 mph18.3 kmh 29.45 in997.3 mb 0.00 in0.0 mm 0.00 in0.0 mm 0.00 in0.0 mm
06:30 AM 51.8°F11.0°C 47.4°F8.6°C 85% 5.3 mph SW8.5 kmh SW 10.7 mph17.2 kmh 29.45 in997.3 mb 0.00 in0.0 mm 0.00 in0.0 mm 0.00 in0.0 mm
06:45 AM 52.5°F11.4°C 47.2°F8.4°C 82% 4.4 mph WSW7.1 kmh WSW 11.4 mph18.3 kmh 29.45 in997.3 mb 0.00 in0.0 mm 0.00 in0.0 mm 0.00 in0.0 mm
07:00 AM 52.9°F11.6°C 47.5°F8.6°C 82% 4.9 mph WSW7.9 kmh WSW 12.1 mph19.5 kmh 29.46 in997.6 mb 0.00 in0.0 mm 0.00 in0.0 mm 0.00 in0.0 mm
07:15 AM 53.1°F11.7°C 47.7°F8.7°C 82% 4.1 mph SW6.6 kmh SW 9.2 mph14.8 kmh 29.46 in997.6 mb 0.00 in0.0 mm 0.00 in0.0 mm 0.00 in0.0 mm
07:30 AM 54.1°F12.3°C 47.8°F8.8°C 79% 3.5 mph WSW5.6 kmh WSW 8.3 mph13.4 kmh 29.47 in998.0 mb 0.00 in0.0 mm 0.00 in0.0 mm 0.00 in0.0 mm
07:45 AM 54.0°F12.2°C 45.9°F7.7°C 74% 5.5 mph W8.9 kmh W 11.4 mph18.3 kmh 29.48 in998.3 mb 0.00 in0.0 mm 0.00 in0.0 mm 0.00 in0.0 mm
08:00 AM 53.6°F12.0°C 45.9°F7.7°C 75% 5.6 mph SW9.0 kmh SW 12.1 mph19.5 kmh 29.49 in998.6 mb 0.00 in0.0 mm 0.00 in0.0 mm 0.00 in0.0 mm
08:15 AM 51.6°F10.9°C 45.7°F7.6°C 80% 3.6 mph S5.8 kmh S 10.7 mph17.2 kmh 29.49 in998.6 mb 0.01 in0.3 mm 0.04 in1.0 mm 0.01 in0.3 mm
08:30 AM 51.6°F10.9°C 46.9°F8.3°C 84% 3.6 mph WSW5.8 kmh WSW 12.1 mph19.5 kmh 29.50 in999.0 mb 0.01 in0.3 mm 0.00 in0.0 mm 0.01 in0.3 mm
08:45 AM 50.0°F10.0°C 43.4°F6.3°C 78% 4.3 mph S6.9 kmh S 13.0 mph20.9 kmh 29.50 in999.0 mb 0.02 in0.5 mm 0.04 in1.0 mm 0.02 in0.5 mm
09:00 AM 51.6°F10.9°C 44.7°F7.1°C 77% 3.3 mph S5.3 kmh S 8.3 mph13.4 kmh 29.50 in999.0 mb 0.02 in0.5 mm 0.00 in0.0 mm 0.02 in0.5 mm
09:15 AM 55.0°F12.8°C 46.2°F7.9°C 72% 3.3 mph WSW5.3 kmh WSW 7.6 mph12.2 kmh 29.51 in999.3 mb 0.01 in0.3 mm 0.00 in0.0 mm 0.02 in0.5 mm
09:30 AM 54.1°F12.3°C 44.2°F6.8°C 69% 5.4 mph S8.7 kmh S 15.2 mph24.5 kmh 29.53 in1000.0 mb 0.01 in0.3 mm 0.00 in0.0 mm 0.02 in0.5 mm
09:45 AM 49.8°F9.9°C 44.9°F7.2°C 83% 2.5 mph SSW4.0 kmh SSW 6.9 mph11.1 kmh 29.53 in1000.0 mb 0.02 in0.5 mm 0.04 in1.0 mm 0.05 in1.3 mm
10:00 AM 52.3°F11.3°C 48.0°F8.9°C 85% 1.5 mph S2.4 kmh S 6.0 mph9.7 kmh 29.53 in1000.0 mb 0.02 in0.5 mm 0.00 in0.0 mm 0.05 in1.3 mm
10:15 AM 52.2°F11.2°C 46.2°F7.9°C 80% 4.4 mph S7.1 kmh S 11.4 mph18.3 kmh 29.54 in1000.3 mb 0.02 in0.5 mm 0.00 in0.0 mm 0.05 in1.3 mm
10:30 AM 54.0°F12.2°C 47.3°F8.5°C 78% 3.2 mph SSW5.1 kmh SSW 9.8 mph15.8 kmh 29.54 in1000.3 mb 0.02 in0.5 mm 0.00 in0.0 mm 0.05 in1.3 mm
10:45 AM 53.8°F12.1°C 44.6°F7.0°C 71% 4.9 mph SW7.9 kmh SW 13.0 mph20.9 kmh 29.55 in1000.7 mb 0.00 in0.0 mm 0.00 in0.0 mm 0.05 in1.3 mm
11:00 AM 54.7°F12.6°C 43.9°F6.6°C 67% 4.8 mph S7.7 kmh S 15.2 mph24.5 kmh 29.55 in1000.7 mb 0.00 in0.0 mm 0.00 in0.0 mm 0.05 in1.3 mm
11:15 AM 53.8°F12.1°C 44.2°F6.8°C 70% 5.7 mph WSW9.2 kmh WSW 11.4 mph18.3 kmh 29.55 in1000.7 mb 0.00 in0.0 mm 0.00 in0.0 mm 0.05 in1.3 mm
11:30 AM 58.5°F14.7°C 45.9°F7.7°C 63% 4.7 mph SW7.6 kmh SW 15.2 mph24.5 kmh 29.55 in1000.7 mb 0.00 in0.0 mm 0.00 in0.0 mm 0.05 in1.3 mm
11:45 AM 54.0°F12.2°C 44.8°F7.1°C 71% 6.0 mph SSW9.7 kmh SSW 15.2 mph24.5 kmh 29.56 in1001.0 mb 0.00 in0.0 mm 0.00 in0.0 mm 0.05 in1.3 mm
12:00 PM 56.7°F13.7°C 46.6°F8.1°C 69% 5.9 mph SW9.5 kmh SW 15.2 mph24.5 kmh 29.56 in1001.0 mb 0.00 in0.0 mm 0.00 in0.0 mm 0.05 in1.3 mm
12:15 PM 58.1°F14.5°C 42.5°F5.8°C 56% 6.8 mph SSW10.9 kmh SSW 14.5 mph23.3 kmh 29.57 in1001.4 mb 0.00 in0.0 mm 0.00 in0.0 mm 0.05 in1.3 mm
12:30 PM 57.4°F14.1°C 42.7°F5.9°C 58% 7.1 mph SSW11.4 kmh SSW 15.2 mph24.5 kmh 29.57 in1001.4 mb 0.00 in0.0 mm 0.00 in0.0 mm 0.05 in1.3 mm
12:45 PM 59.5°F15.3°C 41.9°F5.5°C 52% 8.0 mph S12.9 kmh S 17.4 mph28.0 kmh 29.58 in1001.7 mb 0.00 in0.0 mm 0.00 in0.0 mm 0.05 in1.3 mm
01:00 PM 60.3°F15.7°C 39.4°F4.1°C 46% 7.5 mph SW12.1 kmh SW 17.4 mph28.0 kmh 29.58 in1001.7 mb 0.00 in0.0 mm 0.00 in0.0 mm 0.05 in1.3 mm
01:15 PM 60.1°F15.6°C 39.2°F4.0°C 46% 7.7 mph S12.4 kmh S 17.4 mph28.0 kmh 29.59 in1002.0 mb 0.00 in0.0 mm 0.00 in0.0 mm 0.05 in1.3 mm
01:30 PM 60.4°F15.8°C 39.6°F4.2°C 46% 7.6 mph SW12.2 kmh SW 18.3 mph29.5 kmh 29.60 in1002.4 mb 0.00 in0.0 mm 0.00 in0.0 mm 0.05 in1.3 mm
01:45 PM 61.0°F16.1°C 43.2°F6.2°C 52% 7.9 mph SW12.7 kmh SW 16.8 mph27.0 kmh 29.61 in1002.7 mb 0.00 in0.0 mm 0.00 in0.0 mm 0.05 in1.3 mm
02:00 PM 59.5°F15.3°C 40.4°F4.7°C 49% 8.4 mph SW13.5 kmh SW 17.4 mph28.0 kmh 29.61 in1002.7 mb 0.00 in0.0 mm 0.00 in0.0 mm 0.05 in1.3 mm
02:15 PM 61.5°F16.4°C 42.2°F5.7°C 49% 6.3 mph SSW10.1 kmh SSW 15.2 mph24.5 kmh 29.61 in1002.7 mb 0.00 in0.0 mm 0.00 in0.0 mm 0.05 in1.3 mm
02:30 PM 59.4°F15.2°C 41.7°F5.4°C 52% 7.6 mph S12.2 kmh S 16.8 mph27.0 kmh 29.62 in1003.0 mb 0.00 in0.0 mm 0.00 in0.0 mm 0.05 in1.3 mm
02:45 PM 60.8°F16.0°C 38.8°F3.8°C 44% 5.7 mph S9.2 kmh S 15.9 mph25.6 kmh 29.61 in1002.7 mb 0.00 in0.0 mm 0.00 in0.0 mm 0.05 in1.3 mm
03:00 PM 61.9°F16.6°C 40.3°F4.6°C 45% 6.5 mph SSW10.5 kmh SSW 14.5 mph23.3 kmh 29.62 in1003.0 mb 0.00 in0.0 mm 0.00 in0.0 mm 0.05 in1.3 mm
03:15 PM 58.6°F14.8°C 42.1°F5.6°C 54% 7.0 mph SW11.3 kmh SW 16.8 mph27.0 kmh 29.63 in1003.4 mb 0.00 in0.0 mm 0.00 in0.0 mm 0.05 in1.3 mm
03:30 PM 58.5°F14.7°C 42.4°F5.8°C 55% 7.3 mph S11.7 kmh S 13.6 mph21.9 kmh 29.64 in1003.7 mb 0.00 in0.0 mm 0.00 in0.0 mm 0.05 in1.3 mm
03:45 PM 57.7°F14.3°C 40.2°F4.6°C 52% 7.1 mph SSW11.4 kmh SSW 15.9 mph25.6 kmh 29.65 in1004.1 mb 0.00 in0.0 mm 0.00 in0.0 mm 0.05 in1.3 mm
04:00 PM 55.4°F13.0°C 40.9°F4.9°C 58% 8.1 mph S13.0 kmh S 21.3 mph34.3 kmh 29.66 in1004.4 mb 0.00 in0.0 mm 0.00 in0.0 mm 0.05 in1.3 mm
04:15 PM 54.3°F12.4°C 42.4°F5.8°C 64% 5.7 mph S9.2 kmh S 14.5 mph23.3 kmh 29.66 in1004.4 mb 0.00 in0.0 mm 0.00 in0.0 mm 0.05 in1.3 mm
04:30 PM 53.6°F12.0°C 40.9°F4.9°C 62% 6.2 mph SW10.0 kmh SW 12.1 mph19.5 kmh 29.68 in1005.1 mb 0.00 in0.0 mm 0.00 in0.0 mm 0.05 in1.3 mm
04:45 PM 53.6°F12.0°C 41.3°F5.2°C 63% 5.2 mph SE8.4 kmh SE 12.1 mph19.5 kmh 29.68 in1005.1 mb 0.00 in0.0 mm 0.00 in0.0 mm 0.05 in1.3 mm
05:00 PM 54.0°F12.2°C 40.8°F4.9°C 61% 6.4 mph SW10.3 kmh SW 15.9 mph25.6 kmh 29.69 in1005.4 mb 0.00 in0.0 mm 0.00 in0.0 mm 0.05 in1.3 mm
05:15 PM 54.9°F12.7°C 39.9°F4.4°C 57% 7.2 mph SW11.6 kmh SW 17.4 mph28.0 kmh 29.70 in1005.8 mb 0.00 in0.0 mm 0.00 in0.0 mm 0.05 in1.3 mm
05:30 PM 53.1°F11.7°C 40.8°F4.9°C 63% 7.1 mph S11.4 kmh S 15.2 mph24.5 kmh 29.71 in1006.1 mb 0.00 in0.0 mm 0.00 in0.0 mm 0.05 in1.3 mm
05:45 PM 51.4°F10.8°C 40.9°F4.9°C 67% 4.9 mph SE7.9 kmh SE 15.9 mph25.6 kmh 29.71 in1006.1 mb 0.00 in0.0 mm 0.00 in0.0 mm 0.05 in1.3 mm
06:00 PM 50.9°F10.5°C 41.1°F5.1°C 69% 4.0 mph SSE6.4 kmh SSE 10.7 mph17.2 kmh 29.72 in1006.4 mb 0.00 in0.0 mm 0.00 in0.0 mm 0.05 in1.3 mm
06:15 PM 48.6°F9.2°C 41.0°F5.0°C 75% 7.4 mph S11.9 kmh S 15.2 mph24.5 kmh 29.73 in1006.8 mb 0.00 in0.0 mm 0.00 in0.0 mm 0.05 in1.3 mm
06:30 PM 48.0°F8.9°C 41.8°F5.4°C 79% 3.7 mph SSW6.0 kmh SSW 10.7 mph17.2 kmh 29.74 in1007.1 mb 0.00 in0.0 mm 0.00 in0.0 mm 0.05 in1.3 mm
06:45 PM 48.2°F9.0°C 41.3°F5.2°C 77% 2.5 mph SW4.0 kmh SW 9.2 mph14.8 kmh 29.74 in1007.1 mb 0.00 in0.0 mm 0.00 in0.0 mm 0.05 in1.3 mm
07:00 PM 48.4°F9.1°C 41.2°F5.1°C 76% 1.3 mph SSE2.1 kmh SSE 6.0 mph9.7 kmh 29.75 in1007.5 mb 0.00 in0.0 mm 0.00 in0.0 mm 0.05 in1.3 mm
07:15 PM 47.7°F8.7°C 41.1°F5.1°C 78% 3.1 mph SSE5.0 kmh SSE 11.4 mph18.3 kmh 29.75 in1007.5 mb 0.00 in0.0 mm 0.00 in0.0 mm 0.05 in1.3 mm
07:30 PM 46.9°F8.3°C 41.1°F5.1°C 80% 1.4 mph SW2.3 kmh SW 4.5 mph7.2 kmh 29.76 in1007.8 mb 0.00 in0.0 mm 0.00 in0.0 mm 0.05 in1.3 mm
07:45 PM 47.1°F8.4°C 42.5°F5.8°C 84% 2.8 mph SW4.5 kmh SW 7.6 mph12.2 kmh 29.77 in1008.1 mb 0.01 in0.3 mm 0.04 in1.0 mm 0.06 in1.5 mm
08:00 PM 46.6°F8.1°C 42.3°F5.7°C 85% 1.9 mph WSW3.1 kmh WSW 5.4 mph8.7 kmh 29.78 in1008.5 mb 0.01 in0.3 mm 0.00 in0.0 mm 0.06 in1.5 mm
08:15 PM 46.4°F8.0°C 42.1°F5.6°C 85% 1.1 mph SSW1.8 kmh SSW 3.8 mph6.1 kmh 29.78 in1008.5 mb 0.01 in0.3 mm 0.00 in0.0 mm 0.06 in1.5 mm
08:30 PM 46.6°F8.1°C 42.3°F5.7°C 85% 1.8 mph S2.9 kmh S 6.0 mph9.7 kmh 29.79 in1008.8 mb 0.01 in0.3 mm 0.00 in0.0 mm 0.06 in1.5 mm
08:45 PM 47.5°F8.6°C 41.3°F5.2°C 79% 3.8 mph S6.1 kmh S 9.8 mph15.8 kmh 29.79 in1008.8 mb 0.00 in0.0 mm 0.00 in0.0 mm 0.06 in1.5 mm
09:00 PM 47.8°F8.8°C 40.6°F4.8°C 76% 2.8 mph SW4.5 kmh SW 6.9 mph11.1 kmh 29.80 in1009.1 mb 0.00 in0.0 mm 0.00 in0.0 mm 0.06 in1.5 mm
09:15 PM 46.2°F7.9°C 39.7°F4.3°C 78% 4.4 mph S7.1 kmh S 19.7 mph31.7 kmh 29.80 in1009.1 mb 0.01 in0.3 mm 0.04 in1.0 mm 0.07 in1.8 mm
09:30 PM 45.5°F7.5°C 39.4°F4.1°C 79% 1.0 mph SSE1.6 kmh SSE 4.5 mph7.2 kmh 29.81 in1009.5 mb 0.01 in0.3 mm 0.00 in0.0 mm 0.07 in1.8 mm
09:45 PM 45.7°F7.6°C 40.5°F4.7°C 82% 3.2 mph S5.1 kmh S 10.7 mph17.2 kmh 29.81 in1009.5 mb 0.01 in0.3 mm 0.00 in0.0 mm 0.07 in1.8 mm
10:00 PM 45.1°F7.3°C 39.7°F4.3°C 81% 2.4 mph WSW3.9 kmh WSW 6.9 mph11.1 kmh 29.81 in1009.5 mb 0.01 in0.3 mm 0.00 in0.0 mm 0.07 in1.8 mm
10:15 PM 45.7°F7.6°C 40.5°F4.7°C 82% 6.2 mph SSW10.0 kmh SSW 15.9 mph25.6 kmh 29.82 in1009.8 mb 0.00 in0.0 mm 0.00 in0.0 mm 0.07 in1.8 mm
10:30 PM 44.4°F6.9°C 40.5°F4.7°C 86% 6.1 mph SSW9.8 kmh SSW 15.2 mph24.5 kmh 29.84 in1010.5 mb 0.05 in1.3 mm 0.20 in5.1 mm 0.12 in3.0 mm
10:45 PM 43.9°F6.6°C 40.9°F4.9°C 89% 2.6 mph S4.2 kmh S 10.7 mph17.2 kmh 29.82 in1009.8 mb 0.06 in1.5 mm 0.04 in1.0 mm 0.13 in3.3 mm
11:00 PM 43.3°F6.3°C 40.3°F4.6°C 89% 0.5 mph WNW0.8 kmh WNW 3.8 mph6.1 kmh 29.83 in1010.2 mb 0.06 in1.5 mm 0.00 in0.0 mm 0.11 in2.8 mm
11:15 PM 42.6°F5.9°C 40.2°F4.6°C 91% 0.3 mph WNW0.5 kmh WNW 3.8 mph6.1 kmh 29.82 in1009.8 mb 0.06 in1.5 mm 0.00 in0.0 mm 0.11 in2.8 mm
11:30 PM 42.6°F5.9°C 40.7°F4.8°C 93% 0.3 mph NNW0.5 kmh NNW 2.2 mph3.5 kmh 29.82 in1009.8 mb 0.01 in0.3 mm 0.00 in0.0 mm 0.11 in2.8 mm
11:45 PM 43.2°F6.2°C 41.3°F5.2°C 93% 0.4 mph NNW0.6 kmh NNW 3.1 mph5.0 kmh 29.83 in1010.2 mb 0.00 in0.0 mm 0.00 in0.0 mm 0.11 in2.8 mm